sensor_id;sensor_type;location;lat;lon;timestamp;P1;durP1;ratioP1;P2;durP2;ratioP2
13108;SDS011;6620;53.734;11.510;2022-12-07T00:00:13;10.63;;;6.10;;
13108;SDS011;6620;53.734;11.510;2022-12-07T00:02:39;11.02;;;7.20;;
13108;SDS011;6620;53.734;11.510;2022-12-07T00:05:04;9.23;;;6.47;;
13108;SDS011;6620;53.734;11.510;2022-12-07T00:07:29;10.73;;;7.40;;
13108;SDS011;6620;53.734;11.510;2022-12-07T00:09:54;10.00;;;7.43;;
13108;SDS011;6620;53.734;11.510;2022-12-07T00:12:20;10.50;;;7.07;;
13108;SDS011;6620;53.734;11.510;2022-12-07T00:14:45;10.97;;;7.10;;
13108;SDS011;6620;53.734;11.510;2022-12-07T00:17:11;11.52;;;7.90;;
13108;SDS011;6620;53.734;11.510;2022-12-07T00:19:36;12.13;;;7.43;;
13108;SDS011;6620;53.734;11.510;2022-12-07T00:22:01;10.83;;;7.27;;
13108;SDS011;6620;53.734;11.510;2022-12-07T00:24:27;9.07;;;6.17;;
13108;SDS011;6620;53.734;11.510;2022-12-07T00:26:52;11.57;;;7.30;;
13108;SDS011;6620;53.734;11.510;2022-12-07T00:29:20;10.40;;;7.37;;
13108;SDS011;6620;53.734;11.510;2022-12-07T00:31:46;13.68;;;7.68;;
13108;SDS011;6620;53.734;11.510;2022-12-07T00:34:14;10.30;;;7.13;;
13108;SDS011;6620;53.734;11.510;2022-12-07T00:36:39;11.63;;;7.88;;
13108;SDS011;6620;53.734;11.510;2022-12-07T00:39:04;11.97;;;8.47;;
13108;SDS011;6620;53.734;11.510;2022-12-07T00:41:29;11.93;;;8.38;;
13108;SDS011;6620;53.734;11.510;2022-12-07T00:43:55;13.68;;;8.85;;
13108;SDS011;6620;53.734;11.510;2022-12-07T00:46:20;12.60;;;8.57;;
13108;SDS011;6620;53.734;11.510;2022-12-07T00:48:46;15.98;;;10.23;;
13108;SDS011;6620;53.734;11.510;2022-12-07T00:51:12;18.25;;;10.27;;
13108;SDS011;6620;53.734;11.510;2022-12-07T00:53:37;13.00;;;8.52;;
13108;SDS011;6620;53.734;11.510;2022-12-07T00:56:09;15.68;;;9.02;;
13108;SDS011;6620;53.734;11.510;2022-12-07T01:01:00;16.27;;;9.65;;
13108;SDS011;6620;53.734;11.510;2022-12-07T01:03:26;15.57;;;10.45;;
13108;SDS011;6620;53.734;11.510;2022-12-07T01:05:52;20.43;;;10.93;;
13108;SDS011;6620;53.734;11.510;2022-12-07T01:08:18;14.13;;;8.90;;
13108;SDS011;6620;53.734;11.510;2022-12-07T01:10:43;17.85;;;10.57;;
13108;SDS011;6620;53.734;11.510;2022-12-07T01:13:08;17.27;;;10.03;;
13108;SDS011;6620;53.734;11.510;2022-12-07T01:15:33;14.97;;;9.90;;
13108;SDS011;6620;53.734;11.510;2022-12-07T01:17:59;18.17;;;10.60;;
13108;SDS011;6620;53.734;11.510;2022-12-07T01:20:24;14.63;;;9.53;;
13108;SDS011;6620;53.734;11.510;2022-12-07T01:22:49;17.53;;;10.93;;
13108;SDS011;6620;53.734;11.510;2022-12-07T01:25:14;15.57;;;10.43;;
13108;SDS011;6620;53.734;11.510;2022-12-07T01:27:39;17.95;;;10.27;;
13108;SDS011;6620;53.734;11.510;2022-12-07T01:30:05;17.37;;;11.40;;
13108;SDS011;6620;53.734;11.510;2022-12-07T01:32:31;17.40;;;10.68;;
13108;SDS011;6620;53.734;11.510;2022-12-07T01:34:56;18.85;;;11.10;;
13108;SDS011;6620;53.734;11.510;2022-12-07T01:37:22;19.88;;;12.18;;
13108;SDS011;6620;53.734;11.510;2022-12-07T01:39:50;19.08;;;9.50;;
13108;SDS011;6620;53.734;11.510;2022-12-07T01:42:16;20.98;;;11.13;;
13108;SDS011;6620;53.734;11.510;2022-12-07T01:45:14;17.45;;;10.40;;
13108;SDS011;6620;53.734;11.510;2022-12-07T01:47:32;21.38;;;12.20;;
13108;SDS011;6620;53.734;11.510;2022-12-07T01:49:57;21.73;;;12.93;;
13108;SDS011;6620;53.734;11.510;2022-12-07T01:52:23;19.92;;;11.85;;
13108;SDS011;6620;53.734;11.510;2022-12-07T01:54:51;21.10;;;13.80;;
13108;SDS011;6620;53.734;11.510;2022-12-07T01:57:17;22.58;;;12.88;;
13108;SDS011;6620;53.734;11.510;2022-12-07T01:59:44;23.00;;;13.25;;
13108;SDS011;6620;53.734;11.510;2022-12-07T02:02:13;21.40;;;12.63;;
13108;SDS011;6620;53.734;11.510;2022-12-07T02:04:38;21.95;;;12.48;;
13108;SDS011;6620;53.734;11.510;2022-12-07T02:07:04;21.77;;;12.77;;
13108;SDS011;6620;53.734;11.510;2022-12-07T02:09:30;25.55;;;14.85;;
13108;SDS011;6620;53.734;11.510;2022-12-07T02:11:55;29.37;;;16.43;;
13108;SDS011;6620;53.734;11.510;2022-12-07T02:14:20;24.60;;;13.57;;
13108;SDS011;6620;53.734;11.510;2022-12-07T02:17:02;23.58;;;13.55;;
13108;SDS011;6620;53.734;11.510;2022-12-07T02:22:01;24.63;;;14.27;;
13108;SDS011;6620;53.734;11.510;2022-12-07T02:32:38;25.23;;;14.43;;
13108;SDS011;6620;53.734;11.510;2022-12-07T02:35:08;23.30;;;13.90;;
13108;SDS011;6620;53.734;11.510;2022-12-07T02:37:42;26.23;;;14.30;;
13108;SDS011;6620;53.734;11.510;2022-12-07T02:40:10;26.92;;;14.68;;
13108;SDS011;6620;53.734;11.510;2022-12-07T02:42:38;28.73;;;15.30;;
13108;SDS011;6620;53.734;11.510;2022-12-07T02:45:05;20.20;;;11.75;;
13108;SDS011;6620;53.734;11.510;2022-12-07T02:47:31;22.77;;;12.65;;
13108;SDS011;6620;53.734;11.510;2022-12-07T02:49:58;26.42;;;15.02;;
13108;SDS011;6620;53.734;11.510;2022-12-07T02:52:23;24.42;;;13.57;;
13108;SDS011;6620;53.734;11.510;2022-12-07T02:54:48;27.63;;;13.07;;
13108;SDS011;6620;53.734;11.510;2022-12-07T02:57:36;23.23;;;13.80;;
13108;SDS011;6620;53.734;11.510;2022-12-07T03:00:09;26.27;;;15.10;;
13108;SDS011;6620;53.734;11.510;2022-12-07T03:02:38;23.65;;;13.57;;
13108;SDS011;6620;53.734;11.510;2022-12-07T03:08:00;26.95;;;14.00;;
13108;SDS011;6620;53.734;11.510;2022-12-07T03:10:48;30.55;;;16.35;;
13108;SDS011;6620;53.734;11.510;2022-12-07T03:18:32;27.70;;;15.40;;
13108;SDS011;6620;53.734;11.510;2022-12-07T03:21:00;24.88;;;14.43;;
13108;SDS011;6620;53.734;11.510;2022-12-07T03:23:26;27.02;;;14.23;;
13108;SDS011;6620;53.734;11.510;2022-12-07T03:25:53;23.38;;;13.52;;
13108;SDS011;6620;53.734;11.510;2022-12-07T03:28:20;27.25;;;14.52;;
13108;SDS011;6620;53.734;11.510;2022-12-07T03:30:49;21.63;;;12.77;;
13108;SDS011;6620;53.734;11.510;2022-12-07T03:38:45;21.92;;;13.35;;
13108;SDS011;6620;53.734;11.510;2022-12-07T03:41:14;19.23;;;12.00;;
13108;SDS011;6620;53.734;11.510;2022-12-07T03:43:42;23.08;;;13.60;;
13108;SDS011;6620;53.734;11.510;2022-12-07T03:53:52;22.58;;;14.40;;
13108;SDS011;6620;53.734;11.510;2022-12-07T03:56:18;18.75;;;12.63;;
13108;SDS011;6620;53.734;11.510;2022-12-07T03:58:44;24.85;;;14.43;;
13108;SDS011;6620;53.734;11.510;2022-12-07T04:01:10;22.75;;;14.27;;
13108;SDS011;6620;53.734;11.510;2022-12-07T04:03:35;28.02;;;16.27;;
13108;SDS011;6620;53.734;11.510;2022-12-07T04:06:00;24.10;;;14.80;;
13108;SDS011;6620;53.734;11.510;2022-12-07T04:08:26;25.90;;;16.67;;
13108;SDS011;6620;53.734;11.510;2022-12-07T04:10:51;22.57;;;14.73;;
13108;SDS011;6620;53.734;11.510;2022-12-07T04:13:16;22.23;;;14.93;;
13108;SDS011;6620;53.734;11.510;2022-12-07T04:15:41;26.57;;;17.40;;
13108;SDS011;6620;53.734;11.510;2022-12-07T04:18:07;20.77;;;14.50;;
13108;SDS011;6620;53.734;11.510;2022-12-07T04:20:32;22.75;;;14.57;;
13108;SDS011;6620;53.734;11.510;2022-12-07T04:22:57;23.90;;;14.57;;
13108;SDS011;6620;53.734;11.510;2022-12-07T04:25:22;23.00;;;15.07;;
13108;SDS011;6620;53.734;11.510;2022-12-07T04:27:47;20.60;;;14.37;;
13108;SDS011;6620;53.734;11.510;2022-12-07T04:30:13;20.67;;;13.57;;
13108;SDS011;6620;53.734;11.510;2022-12-07T04:32:38;19.67;;;13.70;;
13108;SDS011;6620;53.734;11.510;2022-12-07T04:35:03;19.77;;;14.55;;
13108;SDS011;6620;53.734;11.510;2022-12-07T04:37:28;23.25;;;14.50;;
13108;SDS011;6620;53.734;11.510;2022-12-07T04:39:54;23.80;;;14.02;;
13108;SDS011;6620;53.734;11.510;2022-12-07T04:42:19;18.95;;;13.15;;
13108;SDS011;6620;53.734;11.510;2022-12-07T04:44:44;20.90;;;12.80;;
13108;SDS011;6620;53.734;11.510;2022-12-07T04:47:09;18.93;;;11.70;;
13108;SDS011;6620;53.734;11.510;2022-12-07T04:49:34;21.07;;;12.97;;
13108;SDS011;6620;53.734;11.510;2022-12-07T04:52:00;20.07;;;13.77;;
13108;SDS011;6620;53.734;11.510;2022-12-07T04:54:25;17.65;;;11.85;;
13108;SDS011;6620;53.734;11.510;2022-12-07T04:56:51;20.30;;;12.57;;
13108;SDS011;6620;53.734;11.510;2022-12-07T04:59:16;19.33;;;12.20;;
13108;SDS011;6620;53.734;11.510;2022-12-07T05:01:41;17.65;;;12.65;;
13108;SDS011;6620;53.734;11.510;2022-12-07T05:04:07;19.42;;;11.43;;
13108;SDS011;6620;53.734;11.510;2022-12-07T05:06:32;12.30;;;6.75;;
13108;SDS011;6620;53.734;11.510;2022-12-07T05:08:57;17.60;;;12.38;;
13108;SDS011;6620;53.734;11.510;2022-12-07T05:11:23;20.40;;;11.47;;
13108;SDS011;6620;53.734;11.510;2022-12-07T05:14:08;14.13;;;8.70;;
13108;SDS011;6620;53.734;11.510;2022-12-07T05:16:33;16.40;;;8.70;;
13108;SDS011;6620;53.734;11.510;2022-12-07T05:18:58;15.55;;;9.40;;
13108;SDS011;6620;53.734;11.510;2022-12-07T05:21:23;18.80;;;10.97;;
13108;SDS011;6620;53.734;11.510;2022-12-07T05:23:49;13.80;;;10.00;;
13108;SDS011;6620;53.734;11.510;2022-12-07T05:26:14;15.20;;;11.73;;
13108;SDS011;6620;53.734;11.510;2022-12-07T05:28:49;16.45;;;10.25;;
13108;SDS011;6620;53.734;11.510;2022-12-07T05:31:14;13.18;;;8.52;;
13108;SDS011;6620;53.734;11.510;2022-12-07T05:33:39;17.43;;;10.27;;
13108;SDS011;6620;53.734;11.510;2022-12-07T05:36:05;15.53;;;9.10;;
13108;SDS011;6620;53.734;11.510;2022-12-07T05:38:32;16.30;;;10.18;;
13108;SDS011;6620;53.734;11.510;2022-12-07T05:41:04;12.02;;;7.28;;
13108;SDS011;6620;53.734;11.510;2022-12-07T05:43:29;13.80;;;9.02;;
13108;SDS011;6620;53.734;11.510;2022-12-07T05:45:55;13.25;;;9.38;;
13108;SDS011;6620;53.734;11.510;2022-12-07T05:48:20;13.85;;;7.95;;
13108;SDS011;6620;53.734;11.510;2022-12-07T05:50:47;14.65;;;9.20;;
13108;SDS011;6620;53.734;11.510;2022-12-07T05:53:12;14.18;;;10.18;;
13108;SDS011;6620;53.734;11.510;2022-12-07T05:55:37;12.30;;;9.37;;
13108;SDS011;6620;53.734;11.510;2022-12-07T05:58:02;13.93;;;9.10;;
13108;SDS011;6620;53.734;11.510;2022-12-07T06:00:46;18.08;;;7.90;;
13108;SDS011;6620;53.734;11.510;2022-12-07T06:03:11;13.07;;;7.97;;
13108;SDS011;6620;53.734;11.510;2022-12-07T06:05:36;15.10;;;8.47;;
13108;SDS011;6620;53.734;11.510;2022-12-07T06:08:02;9.57;;;6.88;;
13108;SDS011;6620;53.734;11.510;2022-12-07T06:10:27;11.50;;;4.80;;
13108;SDS011;6620;53.734;11.510;2022-12-07T06:12:52;12.13;;;6.73;;
13108;SDS011;6620;53.734;11.510;2022-12-07T06:15:17;10.37;;;6.73;;
13108;SDS011;6620;53.734;11.510;2022-12-07T06:17:43;10.37;;;6.53;;
13108;SDS011;6620;53.734;11.510;2022-12-07T06:20:08;13.07;;;7.03;;
13108;SDS011;6620;53.734;11.510;2022-12-07T06:22:33;11.85;;;5.78;;
13108;SDS011;6620;53.734;11.510;2022-12-07T06:24:58;11.43;;;7.07;;
13108;SDS011;6620;53.734;11.510;2022-12-07T06:27:23;8.80;;;5.57;;
13108;SDS011;6620;53.734;11.510;2022-12-07T06:29:49;9.35;;;5.28;;
13108;SDS011;6620;53.734;11.510;2022-12-07T06:32:14;9.30;;;6.33;;
13108;SDS011;6620;53.734;11.510;2022-12-07T06:34:39;8.70;;;6.13;;
13108;SDS011;6620;53.734;11.510;2022-12-07T06:37:04;9.30;;;6.18;;
13108;SDS011;6620;53.734;11.510;2022-12-07T06:39:30;6.23;;;3.57;;
13108;SDS011;6620;53.734;11.510;2022-12-07T06:41:55;10.05;;;4.13;;
13108;SDS011;6620;53.734;11.510;2022-12-07T06:44:21;3.92;;;3.13;;
13108;SDS011;6620;53.734;11.510;2022-12-07T06:46:46;9.15;;;5.03;;
13108;SDS011;6620;53.734;11.510;2022-12-07T06:49:12;7.95;;;4.30;;
13108;SDS011;6620;53.734;11.510;2022-12-07T06:51:37;5.03;;;3.63;;
13108;SDS011;6620;53.734;11.510;2022-12-07T06:54:06;5.25;;;4.13;;
13108;SDS011;6620;53.734;11.510;2022-12-07T06:56:31;6.57;;;4.25;;
13108;SDS011;6620;53.734;11.510;2022-12-07T06:58:56;5.30;;;3.40;;
13108;SDS011;6620;53.734;11.510;2022-12-07T07:01:21;3.85;;;2.47;;
13108;SDS011;6620;53.734;11.510;2022-12-07T07:03:47;4.33;;;3.50;;
13108;SDS011;6620;53.734;11.510;2022-12-07T07:06:12;5.75;;;4.15;;
13108;SDS011;6620;53.734;11.510;2022-12-07T07:08:38;4.93;;;3.78;;
13108;SDS011;6620;53.734;11.510;2022-12-07T07:11:04;5.28;;;3.15;;
13108;SDS011;6620;53.734;11.510;2022-12-07T07:13:29;6.53;;;4.13;;
13108;SDS011;6620;53.734;11.510;2022-12-07T07:15:54;4.63;;;3.53;;
13108;SDS011;6620;53.734;11.510;2022-12-07T07:18:20;3.90;;;3.25;;
13108;SDS011;6620;53.734;11.510;2022-12-07T07:20:45;5.45;;;3.45;;
13108;SDS011;6620;53.734;11.510;2022-12-07T07:23:10;7.17;;;4.27;;
13108;SDS011;6620;53.734;11.510;2022-12-07T07:25:36;5.63;;;3.75;;
13108;SDS011;6620;53.734;11.510;2022-12-07T07:28:01;6.27;;;4.57;;
13108;SDS011;6620;53.734;11.510;2022-12-07T07:30:26;8.07;;;5.07;;
13108;SDS011;6620;53.734;11.510;2022-12-07T07:32:55;7.40;;;5.15;;
13108;SDS011;6620;53.734;11.510;2022-12-07T07:35:20;7.20;;;4.60;;
13108;SDS011;6620;53.734;11.510;2022-12-07T07:37:45;6.63;;;4.87;;
13108;SDS011;6620;53.734;11.510;2022-12-07T07:40:11;7.33;;;5.47;;
13108;SDS011;6620;53.734;11.510;2022-12-07T07:42:36;9.02;;;5.28;;
13108;SDS011;6620;53.734;11.510;2022-12-07T07:45:01;8.10;;;4.83;;
13108;SDS011;6620;53.734;11.510;2022-12-07T07:47:26;7.40;;;5.18;;
13108;SDS011;6620;53.734;11.510;2022-12-07T07:49:53;12.07;;;7.40;;
13108;SDS011;6620;53.734;11.510;2022-12-07T07:52:19;9.90;;;6.10;;
13108;SDS011;6620;53.734;11.510;2022-12-07T07:54:44;6.83;;;4.27;;
13108;SDS011;6620;53.734;11.510;2022-12-07T07:57:09;9.20;;;6.50;;
13108;SDS011;6620;53.734;11.510;2022-12-07T07:59:34;9.83;;;5.90;;
13108;SDS011;6620;53.734;11.510;2022-12-07T08:01:59;8.80;;;6.40;;
13108;SDS011;6620;53.734;11.510;2022-12-07T08:04:24;8.20;;;5.47;;
13108;SDS011;6620;53.734;11.510;2022-12-07T08:06:50;10.52;;;7.50;;
13108;SDS011;6620;53.734;11.510;2022-12-07T08:09:16;9.37;;;6.40;;
13108;SDS011;6620;53.734;11.510;2022-12-07T08:11:41;9.20;;;6.43;;
13108;SDS011;6620;53.734;11.510;2022-12-07T08:14:06;8.77;;;6.23;;
13108;SDS011;6620;53.734;11.510;2022-12-07T08:16:31;8.25;;;6.30;;
13108;SDS011;6620;53.734;11.510;2022-12-07T08:18:56;11.07;;;6.73;;
13108;SDS011;6620;53.734;11.510;2022-12-07T08:21:22;9.80;;;6.87;;
13108;SDS011;6620;53.734;11.510;2022-12-07T08:23:47;8.00;;;6.37;;
13108;SDS011;6620;53.734;11.510;2022-12-07T08:26:13;9.07;;;6.07;;
13108;SDS011;6620;53.734;11.510;2022-12-07T08:28:39;11.02;;;6.90;;
13108;SDS011;6620;53.734;11.510;2022-12-07T08:31:08;9.85;;;7.05;;
13108;SDS011;6620;53.734;11.510;2022-12-07T08:33:35;11.13;;;7.05;;
13108;SDS011;6620;53.734;11.510;2022-12-07T08:36:04;10.73;;;6.70;;
13108;SDS011;6620;53.734;11.510;2022-12-07T08:38:29;8.35;;;6.28;;
13108;SDS011;6620;53.734;11.510;2022-12-07T08:40:55;7.90;;;5.70;;
13108;SDS011;6620;53.734;11.510;2022-12-07T08:43:20;8.30;;;5.72;;
13108;SDS011;6620;53.734;11.510;2022-12-07T08:45:46;8.87;;;6.90;;
13108;SDS011;6620;53.734;11.510;2022-12-07T08:48:12;8.88;;;6.53;;
13108;SDS011;6620;53.734;11.510;2022-12-07T08:50:38;11.93;;;6.55;;
13108;SDS011;6620;53.734;11.510;2022-12-07T08:53:04;11.32;;;6.63;;
13108;SDS011;6620;53.734;11.510;2022-12-07T08:55:30;9.93;;;6.93;;
13108;SDS011;6620;53.734;11.510;2022-12-07T08:57:57;10.93;;;7.38;;
13108;SDS011;6620;53.734;11.510;2022-12-07T09:00:22;11.75;;;7.78;;
13108;SDS011;6620;53.734;11.510;2022-12-07T09:02:48;8.82;;;5.57;;
13108;SDS011;6620;53.734;11.510;2022-12-07T09:05:13;6.28;;;4.80;;
13108;SDS011;6620;53.734;11.510;2022-12-07T09:07:42;8.60;;;5.15;;
13108;SDS011;6620;53.734;11.510;2022-12-07T09:10:08;9.80;;;6.10;;
13108;SDS011;6620;53.734;11.510;2022-12-07T09:12:33;10.50;;;7.15;;
13108;SDS011;6620;53.734;11.510;2022-12-07T09:14:58;8.90;;;6.05;;
13108;SDS011;6620;53.734;11.510;2022-12-07T09:17:25;8.00;;;6.28;;
13108;SDS011;6620;53.734;11.510;2022-12-07T09:19:50;7.60;;;5.87;;
13108;SDS011;6620;53.734;11.510;2022-12-07T09:22:15;8.70;;;6.07;;
13108;SDS011;6620;53.734;11.510;2022-12-07T09:24:41;8.57;;;5.25;;
13108;SDS011;6620;53.734;11.510;2022-12-07T09:27:06;10.05;;;5.35;;
13108;SDS011;6620;53.734;11.510;2022-12-07T09:29:31;11.27;;;5.65;;
13108;SDS011;6620;53.734;11.510;2022-12-07T09:31:56;8.30;;;4.93;;
13108;SDS011;6620;53.734;11.510;2022-12-07T09:34:21;8.40;;;5.80;;
13108;SDS011;6620;53.734;11.510;2022-12-07T09:36:47;7.60;;;5.10;;
13108;SDS011;6620;53.734;11.510;2022-12-07T09:39:12;7.73;;;5.27;;
13108;SDS011;6620;53.734;11.510;2022-12-07T09:41:38;7.33;;;5.43;;
13108;SDS011;6620;53.734;11.510;2022-12-07T09:44:08;8.82;;;4.95;;
13108;SDS011;6620;53.734;11.510;2022-12-07T09:46:35;6.22;;;4.38;;
13108;SDS011;6620;53.734;11.510;2022-12-07T09:49:02;8.00;;;5.78;;
13108;SDS011;6620;53.734;11.510;2022-12-07T09:51:27;9.02;;;5.32;;
13108;SDS011;6620;53.734;11.510;2022-12-07T09:53:53;10.53;;;5.37;;
13108;SDS011;6620;53.734;11.510;2022-12-07T09:56:19;11.48;;;5.10;;
13108;SDS011;6620;53.734;11.510;2022-12-07T09:58:45;9.30;;;6.00;;
13108;SDS011;6620;53.734;11.510;2022-12-07T10:01:15;8.77;;;5.05;;
13108;SDS011;6620;53.734;11.510;2022-12-07T10:03:42;8.93;;;5.28;;
13108;SDS011;6620;53.734;11.510;2022-12-07T10:06:10;8.43;;;6.18;;
13108;SDS011;6620;53.734;11.510;2022-12-07T10:08:35;9.38;;;5.65;;
13108;SDS011;6620;53.734;11.510;2022-12-07T10:11:01;8.52;;;5.47;;
13108;SDS011;6620;53.734;11.510;2022-12-07T10:15:59;11.98;;;5.45;;
13108;SDS011;6620;53.734;11.510;2022-12-07T10:18:29;10.13;;;5.30;;
13108;SDS011;6620;53.734;11.510;2022-12-07T10:21:15;7.03;;;4.85;;
13108;SDS011;6620;53.734;11.510;2022-12-07T10:28:54;9.35;;;5.43;;
13108;SDS011;6620;53.734;11.510;2022-12-07T10:31:21;7.30;;;4.80;;
13108;SDS011;6620;53.734;11.510;2022-12-07T10:33:54;8.52;;;4.70;;
13108;SDS011;6620;53.734;11.510;2022-12-07T10:38:47;7.83;;;3.67;;
13108;SDS011;6620;53.734;11.510;2022-12-07T10:41:13;4.80;;;3.78;;
13108;SDS011;6620;53.734;11.510;2022-12-07T10:43:44;9.38;;;4.35;;
13108;SDS011;6620;53.734;11.510;2022-12-07T10:48:52;7.28;;;3.70;;
13108;SDS011;6620;53.734;11.510;2022-12-07T11:04:03;7.38;;;3.08;;
13108;SDS011;6620;53.734;11.510;2022-12-07T11:08:58;5.37;;;2.60;;
13108;SDS011;6620;53.734;11.510;2022-12-07T11:16:30;9.43;;;3.40;;
13108;SDS011;6620;53.734;11.510;2022-12-07T11:18:59;5.53;;;2.42;;
13108;SDS011;6620;53.734;11.510;2022-12-07T11:21:38;5.85;;;2.33;;
13108;SDS011;6620;53.734;11.510;2022-12-07T11:24:14;7.82;;;2.30;;
13108;SDS011;6620;53.734;11.510;2022-12-07T11:26:50;7.55;;;1.90;;
13108;SDS011;6620;53.734;11.510;2022-12-07T11:32:25;8.63;;;2.50;;
13108;SDS011;6620;53.734;11.510;2022-12-07T11:37:20;3.87;;;1.70;;
13108;SDS011;6620;53.734;11.510;2022-12-07T11:39:50;4.10;;;1.40;;
13108;SDS011;6620;53.734;11.510;2022-12-07T11:42:21;4.03;;;1.30;;
13108;SDS011;6620;53.734;11.510;2022-12-07T11:44:52;3.85;;;1.25;;
13108;SDS011;6620;53.734;11.510;2022-12-07T11:47:21;1.25;;;0.80;;
13108;SDS011;6620;53.734;11.510;2022-12-07T11:49:55;3.63;;;0.88;;
13108;SDS011;6620;53.734;11.510;2022-12-07T11:52:26;5.60;;;1.00;;
13108;SDS011;6620;53.734;11.510;2022-12-07T11:54:52;2.90;;;0.70;;
13108;SDS011;6620;53.734;11.510;2022-12-07T11:57:26;4.25;;;1.08;;
13108;SDS011;6620;53.734;11.510;2022-12-07T11:59:53;3.83;;;0.90;;
13108;SDS011;6620;53.734;11.510;2022-12-07T12:02:37;3.50;;;0.68;;
13108;SDS011;6620;53.734;11.510;2022-12-07T12:07:32;4.78;;;0.55;;
13108;SDS011;6620;53.734;11.510;2022-12-07T12:10:02;5.15;;;0.75;;
13108;SDS011;6620;53.734;11.510;2022-12-07T12:12:55;2.47;;;0.98;;
13108;SDS011;6620;53.734;11.510;2022-12-07T12:18:31;3.55;;;0.32;;
13108;SDS011;6620;53.734;11.510;2022-12-07T12:21:06;2.20;;;0.50;;
13108;SDS011;6620;53.734;11.510;2022-12-07T12:23:41;1.80;;;0.40;;
13108;SDS011;6620;53.734;11.510;2022-12-07T12:26:07;5.00;;;0.82;;
13108;SDS011;6620;53.734;11.510;2022-12-07T12:28:49;11.48;;;0.35;;
13108;SDS011;6620;53.734;11.510;2022-12-07T12:33:47;0.20;;;0.20;;
13108;SDS011;6620;53.734;11.510;2022-12-07T12:49:30;1.40;;;0.20;;
13108;SDS011;6620;53.734;11.510;2022-12-07T12:51:57;3.35;;;0.30;;
13108;SDS011;6620;53.734;11.510;2022-12-07T12:59:22;3.42;;;0.20;;
13108;SDS011;6620;53.734;11.510;2022-12-07T13:01:48;3.05;;;0.20;;
13108;SDS011;6620;53.734;11.510;2022-12-07T13:04:17;4.70;;;0.65;;
13108;SDS011;6620;53.734;11.510;2022-12-07T13:06:42;2.78;;;0.30;;
13108;SDS011;6620;53.734;11.510;2022-12-07T13:09:17;3.42;;;0.30;;
13108;SDS011;6620;53.734;11.510;2022-12-07T13:11:44;1.77;;;0.95;;
13108;SDS011;6620;53.734;11.510;2022-12-07T13:16:53;3.95;;;0.40;;
13108;SDS011;6620;53.734;11.510;2022-12-07T13:22:02;2.30;;;0.25;;
13108;SDS011;6620;53.734;11.510;2022-12-07T13:24:28;3.35;;;0.30;;
13108;SDS011;6620;53.734;11.510;2022-12-07T13:26:56;2.03;;;0.50;;
13108;SDS011;6620;53.734;11.510;2022-12-07T13:29:22;2.10;;;0.30;;
13108;SDS011;6620;53.734;11.510;2022-12-07T13:31:55;3.60;;;0.40;;
13108;SDS011;6620;53.734;11.510;2022-12-07T13:36:52;4.43;;;0.50;;
13108;SDS011;6620;53.734;11.510;2022-12-07T13:39:18;3.03;;;0.85;;
13108;SDS011;6620;53.734;11.510;2022-12-07T13:41:44;4.53;;;0.60;;
13108;SDS011;6620;53.734;11.510;2022-12-07T13:44:14;0.28;;;0.28;;
13108;SDS011;6620;53.734;11.510;2022-12-07T13:49:21;5.78;;;0.68;;
13108;SDS011;6620;53.734;11.510;2022-12-07T13:51:47;2.20;;;0.68;;
13108;SDS011;6620;53.734;11.510;2022-12-07T13:54:13;1.30;;;0.30;;
13108;SDS011;6620;53.734;11.510;2022-12-07T13:56:39;3.95;;;0.50;;
13108;SDS011;6620;53.734;11.510;2022-12-07T13:59:13;2.08;;;0.28;;
13108;SDS011;6620;53.734;11.510;2022-12-07T14:01:39;2.53;;;0.55;;
13108;SDS011;6620;53.734;11.510;2022-12-07T14:06:52;3.08;;;0.38;;
13108;SDS011;6620;53.734;11.510;2022-12-07T14:09:21;1.00;;;0.20;;
13108;SDS011;6620;53.734;11.510;2022-12-07T14:11:47;0.95;;;0.22;;
13108;SDS011;6620;53.734;11.510;2022-12-07T14:14:15;3.80;;;0.38;;
13108;SDS011;6620;53.734;11.510;2022-12-07T14:16:41;2.88;;;0.43;;
13108;SDS011;6620;53.734;11.510;2022-12-07T14:19:39;4.77;;;0.37;;
13108;SDS011;6620;53.734;11.510;2022-12-07T14:22:05;1.00;;;0.35;;
13108;SDS011;6620;53.734;11.510;2022-12-07T14:24:30;1.02;;;0.38;;
13108;SDS011;6620;53.734;11.510;2022-12-07T14:27:14;4.00;;;0.43;;
13108;SDS011;6620;53.734;11.510;2022-12-07T14:29:41;1.20;;;0.20;;
13108;SDS011;6620;53.734;11.510;2022-12-07T14:32:25;4.37;;;0.50;;
13108;SDS011;6620;53.734;11.510;2022-12-07T14:35:08;4.03;;;0.35;;
13108;SDS011;6620;53.734;11.510;2022-12-07T14:37:35;3.45;;;0.40;;
13108;SDS011;6620;53.734;11.510;2022-12-07T14:40:00;0.43;;;0.25;;
13108;SDS011;6620;53.734;11.510;2022-12-07T14:42:27;1.37;;;0.10;;
13108;SDS011;6620;53.734;11.510;2022-12-07T14:44:53;3.13;;;0.25;;
13108;SDS011;6620;53.734;11.510;2022-12-07T14:47:18;1.52;;;0.20;;
13108;SDS011;6620;53.734;11.510;2022-12-07T14:49:43;5.73;;;0.43;;
13108;SDS011;6620;53.734;11.510;2022-12-07T14:52:29;2.40;;;0.10;;
13108;SDS011;6620;53.734;11.510;2022-12-07T14:54:55;0.68;;;0.30;;
13108;SDS011;6620;53.734;11.510;2022-12-07T14:57:20;1.10;;;0.20;;
13108;SDS011;6620;53.734;11.510;2022-12-07T14:59:45;6.77;;;0.93;;
13108;SDS011;6620;53.734;11.510;2022-12-07T15:02:14;2.27;;;0.97;;
13108;SDS011;6620;53.734;11.510;2022-12-07T15:04:39;1.05;;;0.35;;
13108;SDS011;6620;53.734;11.510;2022-12-07T15:07:06;4.05;;;0.30;;
13108;SDS011;6620;53.734;11.510;2022-12-07T15:09:34;1.48;;;0.25;;
13108;SDS011;6620;53.734;11.510;2022-12-07T15:11:59;4.87;;;0.60;;
13108;SDS011;6620;53.734;11.510;2022-12-07T15:14:24;4.75;;;0.50;;
13108;SDS011;6620;53.734;11.510;2022-12-07T15:16:49;1.75;;;0.35;;
13108;SDS011;6620;53.734;11.510;2022-12-07T15:19:18;6.22;;;0.40;;
13108;SDS011;6620;53.734;11.510;2022-12-07T15:21:44;5.25;;;0.73;;
13108;SDS011;6620;53.734;11.510;2022-12-07T15:24:10;2.10;;;0.30;;
13108;SDS011;6620;53.734;11.510;2022-12-07T15:26:35;3.95;;;0.45;;
13108;SDS011;6620;53.734;11.510;2022-12-07T15:29:01;1.33;;;0.30;;
13108;SDS011;6620;53.734;11.510;2022-12-07T15:31:26;0.73;;;0.40;;
13108;SDS011;6620;53.734;11.510;2022-12-07T15:33:52;0.50;;;0.20;;
13108;SDS011;6620;53.734;11.510;2022-12-07T15:36:21;2.40;;;0.40;;
13108;SDS011;6620;53.734;11.510;2022-12-07T15:38:47;3.42;;;0.77;;
13108;SDS011;6620;53.734;11.510;2022-12-07T15:41:12;0.98;;;0.22;;
13108;SDS011;6620;53.734;11.510;2022-12-07T15:43:37;2.73;;;0.40;;
13108;SDS011;6620;53.734;11.510;2022-12-07T15:46:21;2.83;;;0.45;;
13108;SDS011;6620;53.734;11.510;2022-12-07T15:48:46;4.77;;;0.47;;
13108;SDS011;6620;53.734;11.510;2022-12-07T15:51:12;2.73;;;0.80;;
13108;SDS011;6620;53.734;11.510;2022-12-07T15:53:37;2.83;;;0.47;;
13108;SDS011;6620;53.734;11.510;2022-12-07T15:56:05;0.85;;;0.40;;
13108;SDS011;6620;53.734;11.510;2022-12-07T15:58:30;2.47;;;0.68;;
13108;SDS011;6620;53.734;11.510;2022-12-07T16:00:56;6.38;;;0.60;;
13108;SDS011;6620;53.734;11.510;2022-12-07T16:03:21;2.83;;;0.38;;
13108;SDS011;6620;53.734;11.510;2022-12-07T16:05:50;1.83;;;0.40;;
13108;SDS011;6620;53.734;11.510;2022-12-07T16:08:15;2.63;;;0.38;;
13108;SDS011;6620;53.734;11.510;2022-12-07T16:10:40;4.55;;;0.40;;
13108;SDS011;6620;53.734;11.510;2022-12-07T16:13:08;5.22;;;0.40;;
13108;SDS011;6620;53.734;11.510;2022-12-07T16:15:37;2.33;;;0.40;;
13108;SDS011;6620;53.734;11.510;2022-12-07T16:18:02;7.07;;;0.40;;
13108;SDS011;6620;53.734;11.510;2022-12-07T16:20:27;2.90;;;0.40;;
13108;SDS011;6620;53.734;11.510;2022-12-07T16:22:53;3.07;;;0.57;;
13108;SDS011;6620;53.734;11.510;2022-12-07T16:25:18;1.15;;;0.30;;
13108;SDS011;6620;53.734;11.510;2022-12-07T16:27:43;1.70;;;0.40;;
13108;SDS011;6620;53.734;11.510;2022-12-07T16:30:08;3.87;;;0.67;;